Time;durP1;ratioP1;P1;durP2;ratioP2;P2;SDS_P1;SDS_P2;PMS_P1;PMS_P2;Temp;Humidity;BMP_temperature;BMP_pressure;BME280_temperature;BME280_humidity;BME280_pressure;Samples;Min_cycle;Max_cycle;Signal;HPM_P1;HPM_P2
2023/10/06 00:00:53;;;;;;;2.50;2.30;;;;;;;;;;5066121;28;20234;-65
2023/10/06 00:03:20;;;;;;;2.97;2.47;;;;;;;;;;5066469;28;20215;-65
2023/10/06 00:05:49;;;;;;;2.33;2.07;;;;;;;;;;5065416;28;20207;-65
2023/10/06 00:08:18;;;;;;;2.27;2.07;;;;;;;;;;5065934;28;20258;-65
2023/10/06 00:10:51;;;;;;;3.23;1.83;;;;;;;;;;5055259;28;20211;-65
2023/10/06 00:13:20;;;;;;;2.07;1.97;;;;;;;;;;5065188;28;20203;-65
2023/10/06 00:15:49;;;;;;;3.13;2.33;;;;;;;;;;5065921;28;20199;-64
2023/10/06 00:18:19;;;;;;;4.87;2.07;;;;;;;;;;5065334;28;20227;-64
2023/10/06 00:20:48;;;;;;;2.10;2.00;;;;;;;;;;5065639;28;20641;-65
2023/10/06 00:23:21;;;;;;;4.97;2.10;;;;;;;;;;5068559;28;20207;-64
2023/10/06 00:25:51;;;;;;;2.67;1.97;;;;;;;;;;5068198;28;20272;-67
2023/10/06 00:28:19;;;;;;;2.60;1.80;;;;;;;;;;5069002;28;20227;-64
2023/10/06 00:30:47;;;;;;;4.30;2.00;;;;;;;;;;5068829;28;20210;-64
2023/10/06 00:33:15;;;;;;;4.53;2.57;;;;;;;;;;5068449;28;20203;-64
2023/10/06 00:35:44;;;;;;;5.23;2.27;;;;;;;;;;5067502;28;20269;-64
2023/10/06 00:38:16;;;;;;;3.03;2.00;;;;;;;;;;5068540;28;20235;-64
2023/10/06 00:40:50;;;;;;;5.50;2.20;;;;;;;;;;5067704;28;20290;-64
2023/10/06 00:43:21;;;;;;;3.17;1.97;;;;;;;;;;5068711;28;20284;-64
2023/10/06 00:45:49;;;;;;;3.10;1.87;;;;;;;;;;5068405;28;20227;-64
2023/10/06 00:48:16;;;;;;;1.93;1.83;;;;;;;;;;5068660;28;20227;-64
2023/10/06 00:50:43;;;;;;;2.30;2.00;;;;;;;;;;5068287;28;20294;-65
2023/10/06 00:53:13;;;;;;;1.90;1.80;;;;;;;;;;5068338;28;20211;-67
2023/10/06 00:55:40;;;;;;;2.30;2.13;;;;;;;;;;5068224;28;20668;-64
2023/10/06 00:58:10;;;;;;;4.40;2.00;;;;;;;;;;5064674;28;20199;-65
2023/10/06 01:00:38;;;;;;;3.30;1.50;;;;;;;;;;5067253;28;20211;-65
2023/10/06 01:03:14;;;;;;;4.43;2.50;;;;;;;;;;5067222;28;20627;-64
2023/10/06 01:05:44;;;;;;;3.57;1.80;;;;;;;;;;5067777;28;20207;-64
2023/10/06 01:08:12;;;;;;;3.73;2.10;;;;;;;;;;5066604;28;20922;-65
2023/10/06 01:10:40;;;;;;;3.83;2.23;;;;;;;;;;5068009;28;20696;-65
2023/10/06 01:13:12;;;;;;;6.63;2.23;;;;;;;;;;5064545;28;20210;-64
2023/10/06 01:15:48;;;;;;;2.07;1.90;;;;;;;;;;5067600;28;20795;-65
2023/10/06 01:18:24;;;;;;;3.60;2.37;;;;;;;;;;5068115;28;20664;-65
2023/10/06 01:20:51;;;;;;;2.37;2.17;;;;;;;;;;5067675;28;20214;-65
2023/10/06 01:23:21;;;;;;;2.27;2.10;;;;;;;;;;5067934;28;20214;-65
2023/10/06 01:25:54;;;;;;;2.10;2.00;;;;;;;;;;5066716;28;20766;-65
2023/10/06 01:28:23;;;;;;;3.27;2.20;;;;;;;;;;5063281;28;20230;-65
2023/10/06 01:30:51;;;;;;;3.70;2.30;;;;;;;;;;5067731;28;20761;-64
2023/10/06 01:33:18;;;;;;;2.50;2.10;;;;;;;;;;5067034;28;20230;-65
2023/10/06 01:35:46;;;;;;;2.27;1.80;;;;;;;;;;5059641;28;20207;-65
2023/10/06 01:38:22;;;;;;;2.13;2.03;;;;;;;;;;5065533;28;20199;-65
2023/10/06 01:40:52;;;;;;;4.53;1.93;;;;;;;;;;5067444;28;20253;-64
2023/10/06 01:43:22;;;;;;;2.50;2.17;;;;;;;;;;5067208;28;20325;-65
2023/10/06 01:45:50;;;;;;;3.57;2.00;;;;;;;;;;5067273;28;20266;-65
2023/10/06 01:48:23;;;;;;;3.17;1.80;;;;;;;;;;5067097;28;20233;-65
2023/10/06 01:50:54;;;;;;;2.27;2.07;;;;;;;;;;5067198;28;20680;-65
2023/10/06 01:53:21;;;;;;;4.37;2.10;;;;;;;;;;5067222;28;20219;-65
2023/10/06 01:55:49;;;;;;;3.37;2.50;;;;;;;;;;5067055;28;20203;-65
2023/10/06 01:58:18;;;;;;;3.07;2.67;;;;;;;;;;5065836;28;20322;-65
2023/10/06 02:00:48;;;;;;;9.40;2.67;;;;;;;;;;5066953;28;20210;-65
2023/10/06 02:03:17;;;;;;;3.77;2.90;;;;;;;;;;5066702;28;20298;-64
2023/10/06 02:05:44;;;;;;;5.30;2.50;;;;;;;;;;5066362;28;20679;-65
2023/10/06 02:08:14;;;;;;;5.37;2.67;;;;;;;;;;5066073;28;20300;-65
2023/10/06 02:10:42;;;;;;;7.33;2.30;;;;;;;;;;5066747;28;20669;-65
2023/10/06 02:13:09;;;;;;;4.40;2.50;;;;;;;;;;5066723;28;20497;-65
2023/10/06 02:15:38;;;;;;;4.33;2.30;;;;;;;;;;5066711;28;20281;-65
2023/10/06 02:18:12;;;;;;;4.73;2.20;;;;;;;;;;5066578;28;20211;-64
2023/10/06 02:20:39;;;;;;;4.93;2.70;;;;;;;;;;5051049;28;20213;-65
2023/10/06 02:23:06;;;;;;;2.60;2.40;;;;;;;;;;5066394;28;20207;-65
2023/10/06 02:25:33;;;;;;;3.30;2.60;;;;;;;;;;5066556;28;20207;-65
2023/10/06 02:28:03;;;;;;;4.43;2.80;;;;;;;;;;5066275;28;20230;-64
2023/10/06 02:30:37;;;;;;;4.30;2.67;;;;;;;;;;5066467;28;20199;-65
2023/10/06 02:33:06;;;;;;;6.93;2.93;;;;;;;;;;5066115;28;20306;-65
2023/10/06 02:35:34;;;;;;;4.43;2.93;;;;;;;;;;5066875;28;20215;-65
2023/10/06 02:38:05;;;;;;;3.53;2.60;;;;;;;;;;5066257;28;20207;-64
2023/10/06 02:40:43;;;;;;;7.43;2.37;;;;;;;;;;5066537;28;20206;-65
2023/10/06 02:43:11;;;;;;;4.20;2.70;;;;;;;;;;5050597;28;21028;-65
2023/10/06 02:45:40;;;;;;;2.87;2.63;;;;;;;;;;5065955;28;20253;-65
2023/10/06 02:48:15;;;;;;;2.53;2.33;;;;;;;;;;5064549;28;20226;-65
2023/10/06 02:50:45;;;;;;;4.63;2.80;;;;;;;;;;5062660;28;20268;-65
2023/10/06 02:53:14;;;;;;;7.33;2.60;;;;;;;;;;5050108;28;20213;-65
2023/10/06 02:55:44;;;;;;;7.73;2.50;;;;;;;;;;5066463;28;20861;-65
2023/10/06 02:58:16;;;;;;;4.87;2.23;;;;;;;;;;5066005;28;20302;-65
2023/10/06 03:00:50;;;;;;;6.30;2.57;;;;;;;;;;5065391;28;20203;-64
2023/10/06 03:03:22;;;;;;;4.17;2.37;;;;;;;;;;5065886;28;20688;-65
2023/10/06 03:05:51;;;;;;;3.97;3.10;;;;;;;;;;5066284;28;20252;-65
2023/10/06 03:08:20;;;;;;;4.23;2.57;;;;;;;;;;5065598;28;20310;-65
2023/10/06 03:10:48;;;;;;;6.40;2.90;;;;;;;;;;5063378;28;20280;-65
2023/10/06 03:13:23;;;;;;;3.33;2.60;;;;;;;;;;5065335;28;20218;-65
2023/10/06 03:15:50;;;;;;;5.00;3.13;;;;;;;;;;5066045;28;20289;-65
2023/10/06 03:18:19;;;;;;;6.43;3.27;;;;;;;;;;5065501;28;20203;-65
2023/10/06 03:20:49;;;;;;;10.70;3.40;;;;;;;;;;5065792;28;20205;-65
2023/10/06 03:23:26;;;;;;;5.70;4.00;;;;;;;;;;5065337;28;20231;-65
2023/10/06 03:25:56;;;;;;;11.10;3.70;;;;;;;;;;5065464;28;20715;-65
2023/10/06 03:28:25;;;;;;;6.80;3.07;;;;;;;;;;5065325;28;20276;-65
2023/10/06 03:30:52;;;;;;;7.60;3.00;;;;;;;;;;5054729;28;20914;-65
2023/10/06 03:33:21;;;;;;;7.23;3.63;;;;;;;;;;5065378;28;20211;-65
2023/10/06 03:35:48;;;;;;;9.07;3.10;;;;;;;;;;5065622;28;20207;-65
2023/10/06 03:38:31;;;;;;;4.40;3.20;;;;;;;;;;5064525;28;20236;-65
2023/10/06 03:41:18;;;;;;;7.83;3.37;;;;;;;;;;5065041;28;20201;-64
2023/10/06 03:43:50;;;;;;;5.23;2.80;;;;;;;;;;5065015;28;20309;-65
2023/10/06 03:46:18;;;;;;;4.87;3.13;;;;;;;;;;5065341;28;20776;-64
2023/10/06 03:48:48;;;;;;;8.07;3.40;;;;;;;;;;5065117;28;20230;-65
2023/10/06 03:51:17;;;;;;;3.63;3.03;;;;;;;;;;5065702;28;20313;-65
2023/10/06 03:53:47;;;;;;;6.20;2.93;;;;;;;;;;5065129;28;20230;-65
2023/10/06 03:56:16;;;;;;;5.77;3.20;;;;;;;;;;5065964;28;21084;-65
2023/10/06 03:58:44;;;;;;;6.70;2.87;;;;;;;;;;5069351;28;20203;-65
2023/10/06 04:01:11;;;;;;;7.17;3.60;;;;;;;;;;5068957;28;20215;-65
2023/10/06 04:03:39;;;;;;;4.00;2.90;;;;;;;;;;5068792;28;20201;-65
2023/10/06 04:06:12;;;;;;;3.60;2.53;;;;;;;;;;5069125;28;20722;-65
2023/10/06 04:08:40;;;;;;;3.37;2.67;;;;;;;;;;5068458;28;20237;-65
2023/10/06 04:11:07;;;;;;;3.97;3.23;;;;;;;;;;5068714;28;20199;-65
2023/10/06 04:13:38;;;;;;;4.27;3.43;;;;;;;;;;5068758;28;20203;-65
2023/10/06 04:16:05;;;;;;;4.60;3.23;;;;;;;;;;5069067;28;20207;-65
2023/10/06 04:18:32;;;;;;;3.43;2.60;;;;;;;;;;5068883;28;20203;-65
2023/10/06 04:21:00;;;;;;;4.67;3.00;;;;;;;;;;5068618;28;20209;-65
2023/10/06 04:23:28;;;;;;;7.07;3.60;;;;;;;;;;5068891;28;20879;-65
2023/10/06 04:25:56;;;;;;;5.47;3.33;;;;;;;;;;5068544;28;20672;-64
2023/10/06 04:28:25;;;;;;;3.60;2.83;;;;;;;;;;5068085;28;20222;-65
2023/10/06 04:30:53;;;;;;;3.67;3.37;;;;;;;;;;5068680;28;20643;-64
2023/10/06 04:33:20;;;;;;;2.87;2.67;;;;;;;;;;5068463;28;20203;-65
2023/10/06 04:35:55;;;;;;;6.70;3.30;;;;;;;;;;5069022;28;20235;-65
2023/10/06 04:38:23;;;;;;;5.73;3.00;;;;;;;;;;5069193;28;20195;-65
2023/10/06 04:40:52;;;;;;;5.83;3.07;;;;;;;;;;5069198;28;20301;-67
2023/10/06 04:43:19;;;;;;;4.47;3.00;;;;;;;;;;5069131;28;20234;-65
2023/10/06 04:45:47;;;;;;;6.30;3.87;;;;;;;;;;5068312;28;20245;-65
2023/10/06 04:48:15;;;;;;;5.77;3.30;;;;;;;;;;5068649;28;20229;-65
2023/10/06 04:50:43;;;;;;;4.90;3.57;;;;;;;;;;5068636;28;20566;-65
2023/10/06 04:53:11;;;;;;;4.87;3.33;;;;;;;;;;5067981;28;20728;-65
2023/10/06 04:55:39;;;;;;;8.33;4.60;;;;;;;;;;5068145;28;20203;-67
2023/10/06 04:58:09;;;;;;;8.03;3.97;;;;;;;;;;5068745;28;20221;-66
2023/10/06 05:00:36;;;;;;;6.53;3.87;;;;;;;;;;5056447;28;20207;-66
2023/10/06 05:03:05;;;;;;;6.23;3.87;;;;;;;;;;5067732;28;20217;-66
2023/10/06 05:05:37;;;;;;;5.43;4.03;;;;;;;;;;5068137;28;20327;-66
2023/10/06 05:08:05;;;;;;;5.60;3.80;;;;;;;;;;5067609;28;20350;-66
2023/10/06 05:10:32;;;;;;;4.27;3.87;;;;;;;;;;5066891;28;20227;-67
2023/10/06 05:13:02;;;;;;;8.33;4.10;;;;;;;;;;5065783;28;20210;-66
2023/10/06 05:15:31;;;;;;;6.43;4.40;;;;;;;;;;5067642;28;20237;-66
2023/10/06 05:17:58;;;;;;;7.10;4.13;;;;;;;;;;5067387;28;20252;-66
2023/10/06 05:20:29;;;;;;;11.33;4.37;;;;;;;;;;5067963;28;20211;-66
2023/10/06 05:22:58;;;;;;;7.43;4.53;;;;;;;;;;5068124;28;20578;-66
2023/10/06 05:25:26;;;;;;;5.93;4.07;;;;;;;;;;5067583;28;20576;-66
2023/10/06 05:27:53;;;;;;;6.63;4.40;;;;;;;;;;5066796;28;20266;-66
2023/10/06 05:30:21;;;;;;;6.50;4.57;;;;;;;;;;5053177;28;20428;-66
2023/10/06 05:32:49;;;;;;;6.07;4.67;;;;;;;;;;5059926;28;20290;-65
2023/10/06 05:35:19;;;;;;;8.57;4.93;;;;;;;;;;5067175;28;20665;-65
2023/10/06 05:37:46;;;;;;;18.17;4.40;;;;;;;;;;5067173;28;20215;-65
2023/10/06 05:40:16;;;;;;;3.93;3.63;;;;;;;;;;5067131;28;20217;-65
2023/10/06 05:42:43;;;;;;;5.87;4.30;;;;;;;;;;5066929;28;20323;-65
2023/10/06 05:45:15;;;;;;;7.07;4.87;;;;;;;;;;5067014;28;20237;-66
2023/10/06 05:47:43;;;;;;;6.23;3.83;;;;;;;;;;5065376;28;20210;-68
2023/10/06 05:50:12;;;;;;;5.27;3.97;;;;;;;;;;5066201;28;20234;-66
2023/10/06 05:52:39;;;;;;;7.57;5.10;;;;;;;;;;5076025;28;20306;-66
2023/10/06 05:55:09;;;;;;;6.57;4.57;;;;;;;;;;5086313;28;20203;-66
2023/10/06 05:57:38;;;;;;;7.90;4.40;;;;;;;;;;5076919;28;20681;-65
2023/10/06 06:00:09;;;;;;;7.03;4.73;;;;;;;;;;5066089;28;20699;-65
2023/10/06 06:02:37;;;;;;;8.13;4.33;;;;;;;;;;5067069;28;20211;-64
2023/10/06 06:05:06;;;;;;;5.37;4.00;;;;;;;;;;5067081;28;20305;-65
2023/10/06 06:07:34;;;;;;;17.77;4.13;;;;;;;;;;5064831;28;20238;-65
2023/10/06 06:10:04;;;;;;;4.97;3.30;;;;;;;;;;5062336;28;20636;-65
2023/10/06 06:12:31;;;;;;;6.87;4.10;;;;;;;;;;5066597;28;20207;-65
2023/10/06 06:14:58;;;;;;;4.80;3.63;;;;;;;;;;5067816;28;20210;-65
2023/10/06 06:17:25;;;;;;;4.90;4.03;;;;;;;;;;5066764;28;20206;-65
2023/10/06 06:19:53;;;;;;;8.10;3.90;;;;;;;;;;5065257;28;20203;-65
2023/10/06 06:22:20;;;;;;;4.07;3.63;;;;;;;;;;5065883;28;20215;-65
2023/10/06 06:24:49;;;;;;;4.00;3.70;;;;;;;;;;5065771;28;20537;-65
2023/10/06 06:27:16;;;;;;;5.23;4.00;;;;;;;;;;5066021;28;20199;-63
2023/10/06 06:29:46;;;;;;;4.13;3.80;;;;;;;;;;5065647;28;20222;-64
2023/10/06 06:32:14;;;;;;;6.00;4.20;;;;;;;;;;5065573;28;20238;-64
2023/10/06 06:34:42;;;;;;;4.60;4.23;;;;;;;;;;5065751;28;20211;-63
2023/10/06 06:37:10;;;;;;;4.87;4.17;;;;;;;;;;5065518;28;20614;-64
2023/10/06 06:39:38;;;;;;;7.73;4.33;;;;;;;;;;5065738;28;20606;-65
2023/10/06 06:42:08;;;;;;;4.67;3.93;;;;;;;;;;5064350;28;20203;-64
2023/10/06 06:44:36;;;;;;;3.97;3.63;;;;;;;;;;5068058;28;20743;-64
2023/10/06 06:47:03;;;;;;;5.77;4.17;;;;;;;;;;5065962;28;20661;-63
2023/10/06 06:49:30;;;;;;;6.20;4.33;;;;;;;;;;5064549;28;20226;-64
2023/10/06 06:51:58;;;;;;;9.33;4.93;;;;;;;;;;5065284;28;20205;-64
2023/10/06 06:54:25;;;;;;;10.77;5.13;;;;;;;;;;5062989;28;20199;-64
2023/10/06 06:56:53;;;;;;;7.20;5.20;;;;;;;;;;5065032;28;20203;-65
2023/10/06 06:59:21;;;;;;;11.80;6.13;;;;;;;;;;5064588;28;20670;-65
2023/10/06 07:01:48;;;;;;;10.40;6.00;;;;;;;;;;5063112;28;20229;-65
2023/10/06 07:04:16;;;;;;;6.23;5.30;;;;;;;;;;5065399;28;20211;-63
2023/10/06 07:06:43;;;;;;;7.17;5.27;;;;;;;;;;5065179;28;20204;-63
2023/10/06 07:09:13;;;;;;;10.10;5.70;;;;;;;;;;5065167;28;20229;-63
2023/10/06 07:11:41;;;;;;;8.47;6.40;;;;;;;;;;5065105;28;20302;-66
2023/10/06 07:14:08;;;;;;;12.37;6.77;;;;;;;;;;5065281;28;20215;-64
2023/10/06 07:16:37;;;;;;;11.33;7.23;;;;;;;;;;5065147;28;20235;-64
2023/10/06 07:19:06;;;;;;;11.23;6.40;;;;;;;;;;5061671;28;20195;-64
2023/10/06 07:21:33;;;;;;;11.27;6.83;;;;;;;;;;5064976;28;20215;-64
2023/10/06 07:24:00;;;;;;;16.30;7.53;;;;;;;;;;5065358;28;20203;-64
2023/10/06 07:26:28;;;;;;;14.07;6.80;;;;;;;;;;5065639;28;20207;-65
2023/10/06 07:28:56;;;;;;;16.13;7.63;;;;;;;;;;5065261;28;20353;-64
2023/10/06 07:31:24;;;;;;;11.93;6.40;;;;;;;;;;5069622;28;20289;-64
2023/10/06 07:33:54;;;;;;;13.37;6.13;;;;;;;;;;5072151;28;20211;-65
2023/10/06 07:36:21;;;;;;;9.90;5.50;;;;;;;;;;5070504;28;20210;-65
2023/10/06 07:38:49;;;;;;;11.20;5.87;;;;;;;;;;5071527;28;20194;-66
2023/10/06 07:41:19;;;;;;;10.30;5.27;;;;;;;;;;5071648;28;20245;-66
2023/10/06 07:43:47;;;;;;;7.50;4.93;;;;;;;;;;5071808;28;20226;-66
2023/10/06 07:46:16;;;;;;;8.07;4.43;;;;;;;;;;5071325;28;20230;-64
2023/10/06 07:48:44;;;;;;;8.03;5.00;;;;;;;;;;5070363;28;20286;-64
2023/10/06 07:51:14;;;;;;;6.63;4.50;;;;;;;;;;5069910;28;20202;-64
2023/10/06 07:53:43;;;;;;;7.20;4.67;;;;;;;;;;5071642;28;20257;-64
2023/10/06 07:56:11;;;;;;;8.60;5.20;;;;;;;;;;5070914;28;20234;-64
2023/10/06 07:58:41;;;;;;;9.43;5.23;;;;;;;;;;5071862;28;20212;-64
2023/10/06 08:01:08;;;;;;;6.73;4.90;;;;;;;;;;5071724;28;20759;-64
2023/10/06 08:03:37;;;;;;;7.97;5.70;;;;;;;;;;5069188;28;20242;-64
2023/10/06 08:06:05;;;;;;;12.60;6.57;;;;;;;;;;5070749;28;20253;-64
2023/10/06 08:08:34;;;;;;;11.37;6.33;;;;;;;;;;5070662;28;20380;-64
2023/10/06 08:11:02;;;;;;;13.37;7.33;;;;;;;;;;5070652;28;20673;-64
2023/10/06 08:13:31;;;;;;;10.40;7.10;;;;;;;;;;5070735;28;20239;-63
2023/10/06 08:15:58;;;;;;;10.40;7.10;;;;;;;;;;5071034;28;20603;-63
2023/10/06 08:18:25;;;;;;;12.30;7.63;;;;;;;;;;5070711;28;20211;-64
2023/10/06 08:20:53;;;;;;;12.00;7.10;;;;;;;;;;5070799;28;20199;-64
2023/10/06 08:23:20;;;;;;;10.03;7.70;;;;;;;;;;5070659;28;20253;-64
2023/10/06 08:25:52;;;;;;;10.67;7.03;;;;;;;;;;5070475;28;20210;-65
2023/10/06 08:28:19;;;;;;;11.00;6.47;;;;;;;;;;5070965;28;20207;-65
2023/10/06 08:30:46;;;;;;;11.80;7.47;;;;;;;;;;5070691;28;20594;-65
2023/10/06 08:33:13;;;;;;;14.17;7.10;;;;;;;;;;5070506;28;20210;-64
2023/10/06 08:35:41;;;;;;;9.60;7.03;;;;;;;;;;5070615;28;20254;-65
2023/10/06 08:38:09;;;;;;;16.07;9.23;;;;;;;;;;5069919;28;20231;-65
2023/10/06 08:40:37;;;;;;;15.70;8.87;;;;;;;;;;5070524;28;20297;-64
2023/10/06 08:43:08;;;;;;;13.57;8.80;;;;;;;;;;5067208;28;20230;-65
2023/10/06 08:45:41;;;;;;;16.10;9.40;;;;;;;;;;5067354;28;20246;-64
2023/10/06 08:48:10;;;;;;;15.00;10.10;;;;;;;;;;5067445;28;20230;-65
2023/10/06 08:50:38;;;;;;;18.70;11.33;;;;;;;;;;5067578;28;20618;-64
2023/10/06 08:53:09;;;;;;;16.20;10.07;;;;;;;;;;5067086;28;20250;-64
2023/10/06 08:55:37;;;;;;;19.03;10.30;;;;;;;;;;5067299;28;20210;-64
2023/10/06 08:58:07;;;;;;;16.33;10.20;;;;;;;;;;5067264;28;20486;-64
2023/10/06 09:00:36;;;;;;;13.67;9.37;;;;;;;;;;5067067;28;20203;-64
2023/10/06 09:03:07;;;;;;;16.17;9.70;;;;;;;;;;5067014;28;20250;-64
2023/10/06 09:05:35;;;;;;;14.90;10.37;;;;;;;;;;5066864;28;20296;-64
2023/10/06 09:08:05;;;;;;;14.40;10.17;;;;;;;;;;5066956;28;20569;-64
2023/10/06 09:10:32;;;;;;;13.40;9.60;;;;;;;;;;5066833;28;20284;-64
2023/10/06 09:13:01;;;;;;;15.63;9.57;;;;;;;;;;5066920;28;20203;-64
2023/10/06 09:15:29;;;;;;;15.27;8.70;;;;;;;;;;5066836;28;20689;-64
2023/10/06 09:17:57;;;;;;;10.93;8.17;;;;;;;;;;5066786;28;20302;-64
2023/10/06 09:20:36;;;;;;;10.00;8.47;;;;;;;;;;5066873;28;20202;-64
2023/10/06 09:23:03;;;;;;;10.00;7.82;;;;;;;;;;5066759;28;20235;-64
2023/10/06 09:25:42;;;;;;;14.35;8.25;;;;;;;;;;5066709;28;20211;-64
2023/10/06 09:28:13;;;;;;;8.60;7.27;;;;;;;;;;5065745;28;20234;-64
2023/10/06 09:30:56;;;;;;;10.20;7.40;;;;;;;;;;5066521;28;20234;-64
2023/10/06 09:33:25;;;;;;;7.05;6.35;;;;;;;;;;5066515;28;20297;-64
2023/10/06 09:36:02;;;;;;;6.43;5.82;;;;;;;;;;5066206;28;20831;-64
2023/10/06 09:38:29;;;;;;;8.05;5.93;;;;;;;;;;5066429;28;20210;-64
2023/10/06 09:40:58;;;;;;;10.13;5.50;;;;;;;;;;5066077;28;20294;-64
2023/10/06 09:43:27;;;;;;;7.40;5.38;;;;;;;;;;5066244;28;20495;-64
2023/10/06 09:45:55;;;;;;;5.72;5.22;;;;;;;;;;5066164;28;20317;-64
2023/10/06 09:48:26;;;;;;;7.15;5.63;;;;;;;;;;5066222;28;20226;-65
2023/10/06 09:50:57;;;;;;;6.97;5.72;;;;;;;;;;5066046;28;20507;-64
2023/10/06 09:53:26;;;;;;;7.20;5.05;;;;;;;;;;5065403;28;20211;-64
2023/10/06 09:55:54;;;;;;;5.28;4.85;;;;;;;;;;5065481;28;20210;-65
2023/10/06 09:58:23;;;;;;;10.98;5.28;;;;;;;;;;5066249;28;20219;-64
2023/10/06 10:00:50;;;;;;;7.82;5.45;;;;;;;;;;5065758;28;20213;-64
2023/10/06 10:03:20;;;;;;;10.15;6.65;;;;;;;;;;5065766;28;20207;-64
2023/10/06 10:05:47;;;;;;;8.02;6.15;;;;;;;;;;5065520;28;20215;-64
2023/10/06 10:08:15;;;;;;;8.80;4.90;;;;;;;;;;5065633;28;20485;-64
2023/10/06 10:10:44;;;;;;;5.43;5.03;;;;;;;;;;5065517;28;20227;-64
2023/10/06 10:13:22;;;;;;;5.65;5.15;;;;;;;;;;5065422;28;20294;-64
2023/10/06 10:15:57;;;;;;;5.45;4.97;;;;;;;;;;5065314;28;20261;-64
2023/10/06 10:18:29;;;;;;;9.70;5.10;;;;;;;;;;5064780;28;20295;-64
2023/10/06 10:20:59;;;;;;;8.00;4.40;;;;;;;;;;5065455;28;20706;-64
2023/10/06 10:23:28;;;;;;;4.70;3.72;;;;;;;;;;5065222;28;20578;-64
2023/10/06 10:26:00;;;;;;;5.82;4.78;;;;;;;;;;5065119;28;20206;-64
2023/10/06 10:28:27;;;;;;;8.32;4.43;;;;;;;;;;5065209;28;20206;-64
2023/10/06 10:30:56;;;;;;;5.28;4.40;;;;;;;;;;5065153;28;20234;-65
2023/10/06 10:33:24;;;;;;;4.50;4.10;;;;;;;;;;5065192;28;20261;-64
2023/10/06 10:36:08;;;;;;;6.25;4.00;;;;;;;;;;5064894;28;20215;-64
2023/10/06 10:38:37;;;;;;;5.68;4.70;;;;;;;;;;5064923;28;20562;-64
2023/10/06 10:41:07;;;;;;;7.82;4.32;;;;;;;;;;5065688;28;20235;-64
2023/10/06 10:43:37;;;;;;;9.45;5.28;;;;;;;;;;5065687;28;20222;-65
2023/10/06 10:46:06;;;;;;;8.30;5.53;;;;;;;;;;5062575;28;21035;-62
2023/10/06 10:48:36;;;;;;;10.18;5.72;;;;;;;;;;5066037;28;20213;-66
2023/10/06 10:51:11;;;;;;;8.15;5.30;;;;;;;;;;5065809;28;20222;-69
2023/10/06 10:53:43;;;;;;;6.95;5.68;;;;;;;;;;5065621;28;20219;-63
2023/10/06 10:56:14;;;;;;;7.13;5.28;;;;;;;;;;5065270;28;20297;-66
2023/10/06 10:58:54;;;;;;;10.57;4.68;;;;;;;;;;5066507;28;20214;-67
2023/10/06 11:01:39;;;;;;;8.18;4.45;;;;;;;;;;5066810;28;20572;-62
2023/10/06 11:04:18;;;;;;;5.32;4.47;;;;;;;;;;5066517;28;20214;-66
2023/10/06 11:06:45;;;;;;;10.57;4.45;;;;;;;;;;5065863;28;20301;-63
2023/10/06 11:09:25;;;;;;;7.60;5.10;;;;;;;;;;5065608;28;20574;-64
2023/10/06 11:11:55;;;;;;;6.22;4.15;;;;;;;;;;5065684;28;20230;-63
2023/10/06 11:14:22;;;;;;;8.32;4.47;;;;;;;;;;5066454;28;20217;-62
2023/10/06 11:16:49;;;;;;;9.15;4.60;;;;;;;;;;5066568;28;20229;-63
2023/10/06 11:19:16;;;;;;;8.40;4.80;;;;;;;;;;5066561;28;20215;-62
2023/10/06 11:21:44;;;;;;;8.35;4.40;;;;;;;;;;5066564;28;20210;-62
2023/10/06 11:24:13;;;;;;;4.10;3.70;;;;;;;;;;5066057;28;20222;-62
2023/10/06 11:26:43;;;;;;;5.60;4.53;;;;;;;;;;5066073;28;20580;-63
2023/10/06 11:29:10;;;;;;;5.60;4.10;;;;;;;;;;5065527;28;21745;-62
2023/10/06 11:31:37;;;;;;;7.97;3.97;;;;;;;;;;5066188;28;20222;-62
2023/10/06 11:34:04;;;;;;;5.28;3.97;;;;;;;;;;5066023;28;20396;-62
2023/10/06 11:36:31;;;;;;;7.05;4.30;;;;;;;;;;5065863;28;20210;-62
2023/10/06 11:38:58;;;;;;;3.72;3.42;;;;;;;;;;5065662;28;20692;-62
2023/10/06 11:41:27;;;;;;;7.95;3.63;;;;;;;;;;5065976;28;20206;-61
2023/10/06 11:43:58;;;;;;;10.85;3.40;;;;;;;;;;5065594;28;20316;-62
2023/10/06 11:46:27;;;;;;;4.30;3.30;;;;;;;;;;5065488;28;21148;-64
2023/10/06 11:49:09;;;;;;;8.50;3.55;;;;;;;;;;5065797;28;20253;-63
2023/10/06 11:51:40;;;;;;;11.20;3.30;;;;;;;;;;5057338;28;20240;-64
2023/10/06 11:54:07;;;;;;;4.35;3.08;;;;;;;;;;5062651;28;20703;-62
2023/10/06 11:56:34;;;;;;;6.15;3.30;;;;;;;;;;5065100;28;20213;-63
2023/10/06 11:59:03;;;;;;;5.35;3.28;;;;;;;;;;5063989;28;20207;-65
2023/10/06 12:01:32;;;;;;;6.10;2.90;;;;;;;;;;5064816;28;20743;-63
2023/10/06 12:04:00;;;;;;;5.55;2.65;;;;;;;;;;5064179;28;20288;-63
2023/10/06 12:06:29;;;;;;;6.60;2.70;;;;;;;;;;5065211;28;20683;-63
2023/10/06 12:08:56;;;;;;;4.38;3.03;;;;;;;;;;5064432;28;20254;-63
2023/10/06 12:11:24;;;;;;;6.97;2.85;;;;;;;;;;5058697;28;20652;-63
2023/10/06 12:13:53;;;;;;;7.13;3.20;;;;;;;;;;5060342;28;20199;-63
2023/10/06 12:16:22;;;;;;;5.88;3.20;;;;;;;;;;5063456;28;20226;-63
2023/10/06 12:18:49;;;;;;;6.53;2.92;;;;;;;;;;5067483;28;20285;-64
2023/10/06 12:21:17;;;;;;;6.68;3.22;;;;;;;;;;5067979;28;20206;-64
2023/10/06 12:23:45;;;;;;;3.30;2.42;;;;;;;;;;5069228;28;20205;-64
2023/10/06 12:26:12;;;;;;;4.82;2.63;;;;;;;;;;5066909;28;20301;-64
2023/10/06 12:28:42;;;;;;;5.80;2.50;;;;;;;;;;5056332;28;20207;-64
2023/10/06 12:31:11;;;;;;;5.32;2.70;;;;;;;;;;5062612;28;20404;-64
2023/10/06 12:33:39;;;;;;;5.90;2.65;;;;;;;;;;5069158;28;20207;-63
2023/10/06 12:36:08;;;;;;;3.15;2.20;;;;;;;;;;5075036;28;20206;-64
2023/10/06 12:38:35;;;;;;;4.88;2.85;;;;;;;;;;5067718;28;20207;-64
2023/10/06 12:41:06;;;;;;;7.70;2.83;;;;;;;;;;5067907;28;20195;-64
2023/10/06 12:43:35;;;;;;;4.93;2.90;;;;;;;;;;5067093;28;20309;-64
2023/10/06 12:46:03;;;;;;;5.07;2.80;;;;;;;;;;5065745;28;20226;-62
2023/10/06 12:48:31;;;;;;;5.80;2.72;;;;;;;;;;5067547;28;20206;-62
2023/10/06 12:50:59;;;;;;;8.98;3.10;;;;;;;;;;5068638;28;20345;-64
2023/10/06 12:53:28;;;;;;;9.15;2.97;;;;;;;;;;5068654;28;20215;-62
2023/10/06 12:55:57;;;;;;;4.10;3.03;;;;;;;;;;5067967;28;20256;-62
2023/10/06 12:58:24;;;;;;;4.85;3.00;;;;;;;;;;5066401;28;20206;-64
2023/10/06 13:00:51;;;;;;;3.85;2.83;;;;;;;;;;5065520;28;20203;-64
2023/10/06 13:03:19;;;;;;;6.55;3.05;;;;;;;;;;5067911;28;20262;-61
2023/10/06 13:05:47;;;;;;;7.35;3.10;;;;;;;;;;5067803;28;20207;-63
2023/10/06 13:08:17;;;;;;;7.18;2.80;;;;;;;;;;5070398;28;20202;-62
2023/10/06 13:10:44;;;;;;;6.18;3.20;;;;;;;;;;5075799;28;20218;-62
2023/10/06 13:13:12;;;;;;;3.60;2.80;;;;;;;;;;5067139;28;20214;-63
2023/10/06 13:15:40;;;;;;;4.20;2.70;;;;;;;;;;5065830;28;20294;-66
2023/10/06 13:18:08;;;;;;;6.80;2.88;;;;;;;;;;5064739;28;20897;-73
2023/10/06 13:20:35;;;;;;;5.00;2.50;;;;;;;;;;5058786;28;20253;-60
2023/10/06 13:23:04;;;;;;;3.05;2.30;;;;;;;;;;5065705;28;20714;-64
2023/10/06 13:25:33;;;;;;;9.35;2.53;;;;;;;;;;5064948;28;20206;-65
2023/10/06 13:28:00;;;;;;;6.97;2.95;;;;;;;;;;5065312;28;20285;-64
2023/10/06 13:30:32;;;;;;;4.25;2.42;;;;;;;;;;5066802;28;20235;-61
2023/10/06 13:32:59;;;;;;;3.97;2.40;;;;;;;;;;5057218;28;20226;-61
2023/10/06 13:35:27;;;;;;;7.38;2.88;;;;;;;;;;5067575;28;20668;-63
2023/10/06 13:37:54;;;;;;;4.15;2.15;;;;;;;;;;5066710;28;20203;-63
2023/10/06 13:40:21;;;;;;;3.00;2.65;;;;;;;;;;5066706;28;20207;-64
2023/10/06 13:42:50;;;;;;;5.53;2.42;;;;;;;;;;5067223;28;20692;-62
2023/10/06 13:45:19;;;;;;;6.05;2.55;;;;;;;;;;5066182;28;20877;-61
2023/10/06 13:47:47;;;;;;;3.05;2.47;;;;;;;;;;5070087;28;20210;-62
2023/10/06 13:50:14;;;;;;;4.60;2.35;;;;;;;;;;5063691;28;20256;-63
2023/10/06 13:52:42;;;;;;;4.25;2.47;;;;;;;;;;5063708;28;20288;-63
2023/10/06 13:55:10;;;;;;;2.65;2.30;;;;;;;;;;5069553;28;20214;-63
2023/10/06 13:57:38;;;;;;;3.90;2.30;;;;;;;;;;5064979;28;20760;-62
2023/10/06 14:00:09;;;;;;;6.85;2.35;;;;;;;;;;5065481;28;20218;-63
2023/10/06 14:02:36;;;;;;;5.25;2.58;;;;;;;;;;5064658;28;20199;-63
2023/10/06 14:05:03;;;;;;;5.38;2.47;;;;;;;;;;5063577;28;20236;-62
2023/10/06 14:07:31;;;;;;;4.20;2.35;;;;;;;;;;5062448;28;20673;-62
2023/10/06 14:09:59;;;;;;;8.45;2.40;;;;;;;;;;5065673;28;20242;-64
2023/10/06 14:12:29;;;;;;;5.30;2.85;;;;;;;;;;5053761;28;20230;-64
2023/10/06 14:14:59;;;;;;;3.95;2.60;;;;;;;;;;5063242;28;20596;-64
2023/10/06 14:17:32;;;;;;;4.50;2.05;;;;;;;;;;5063206;28;20727;-63
2023/10/06 14:19:59;;;;;;;3.85;2.28;;;;;;;;;;5063504;28;20218;-63
2023/10/06 14:22:30;;;;;;;3.72;2.00;;;;;;;;;;5060841;28;20207;-64
2023/10/06 14:24:58;;;;;;;11.13;2.22;;;;;;;;;;5064964;28;20215;-64
2023/10/06 14:27:27;;;;;;;4.50;2.80;;;;;;;;;;5064847;28;20234;-64
2023/10/06 14:29:56;;;;;;;2.22;2.00;;;;;;;;;;5064587;28;20219;-64
2023/10/06 14:32:42;;;;;;;2.78;2.33;;;;;;;;;;5062176;28;20701;-64
2023/10/06 14:35:23;;;;;;;3.60;2.13;;;;;;;;;;5063377;28;20580;-64
2023/10/06 14:38:14;;;;;;;5.13;2.10;;;;;;;;;;5064405;28;20230;-64
2023/10/06 14:46:11;;;;;;;6.53;2.25;;;;;;;;;;5061367;28;20257;-65
2023/10/06 14:48:43;;;;;;;7.45;2.40;;;;;;;;;;5060550;28;20242;-65
2023/10/06 14:51:12;;;;;;;4.57;2.47;;;;;;;;;;5062922;28;20226;-65
2023/10/06 14:53:39;;;;;;;4.53;2.35;;;;;;;;;;5063953;28;20211;-65
2023/10/06 14:56:06;;;;;;;6.10;2.22;;;;;;;;;;5062722;28;20215;-64
2023/10/06 14:58:33;;;;;;;7.63;2.33;;;;;;;;;;5062779;28;20696;-63